createdAt,value
2022-11-16T00:04:45.863Z,96076.52
2022-11-16T00:14:49.587Z,96069.31
2022-11-16T00:24:53.763Z,96061.84
2022-11-16T00:34:57.747Z,96051.84
2022-11-16T00:45:01.507Z,96044.27
2022-11-16T00:55:06.330Z,96046.48
2022-11-16T01:05:11.907Z,96048.30
2022-11-16T01:15:17.001Z,96034.77
2022-11-16T01:25:20.996Z,96020.36
2022-11-16T01:35:24.765Z,96013.52
2022-11-16T01:45:39.569Z,96007.17
2022-11-16T01:55:47.999Z,95990.36
2022-11-16T02:06:53.474Z,95970.70
2022-11-16T02:17:19.536Z,95967.71
2022-11-16T02:27:42.909Z,95963.52
2022-11-16T02:37:53.088Z,95946.45
2022-11-16T02:48:05.078Z,95939.75
2022-11-16T02:58:12.886Z,95926.45
2022-11-16T03:08:31.635Z,95916.11
2022-11-16T03:18:40.193Z,95909.87
2022-11-16T03:29:08.975Z,95908.60
2022-11-16T03:39:19.838Z,95901.50
2022-11-16T03:49:24.521Z,95889.69
2022-11-16T03:59:29.686Z,95879.98
2022-11-16T04:09:53.115Z,95858.52
2022-11-16T04:20:15.993Z,95862.71
2022-11-16T04:30:20.194Z,95854.68
2022-11-16T04:40:29.831Z,95850.20
2022-11-16T04:50:34.466Z,95841.77
2022-11-16T05:00:39.769Z,95837.46
2022-11-16T05:10:44.653Z,95834.27
2022-11-16T05:21:04.664Z,95830.26
2022-11-16T05:31:14.004Z,95812.68
2022-11-16T05:41:17.976Z,95798.44
2022-11-16T05:51:22.040Z,95796.21
2022-11-16T06:01:26.522Z,95798.39
2022-11-16T06:11:35.857Z,95799.34
2022-11-16T06:21:40.609Z,95794.65
2022-11-16T06:31:49.352Z,95785.25
2022-11-16T06:41:53.573Z,95787.98
2022-11-16T06:51:57.441Z,95785.37
2022-11-16T07:02:02.789Z,95779.55
2022-11-16T07:12:07.837Z,95769.55
2022-11-16T07:22:14.164Z,95766.45
2022-11-16T07:32:19.260Z,95752.40
2022-11-16T07:42:42.840Z,95743.00
2022-11-16T07:53:04.761Z,95734.60
2022-11-16T08:03:08.733Z,95737.11
2022-11-16T08:13:14.448Z,95734.92
2022-11-16T08:23:20.049Z,95733.47
2022-11-16T08:33:26.231Z,95732.35
2022-11-16T08:43:32.351Z,95733.52
2022-11-16T08:53:36.885Z,95738.83
2022-11-16T09:03:42.194Z,95742.71
2022-11-16T09:13:48.397Z,95748.48
2022-11-16T09:23:54.065Z,95744.02
2022-11-16T09:33:59.216Z,95732.74
2022-11-16T09:44:14.950Z,95714.21
2022-11-16T09:54:24.664Z,95697.78
2022-11-16T10:04:44.283Z,95683.14
2022-11-16T10:14:54.344Z,95667.98
2022-11-16T10:24:59.138Z,95667.27
2022-11-16T10:35:11.897Z,95661.20
2022-11-16T10:45:25.860Z,95654.24
2022-11-16T10:55:30.246Z,95653.48
2022-11-16T11:05:36.871Z,95645.41
2022-11-16T11:15:43.094Z,95641.09
2022-11-16T11:25:58.737Z,95633.56
2022-11-16T11:36:07.679Z,95632.55
2022-11-16T11:46:47.381Z,95629.17
2022-11-16T11:56:51.279Z,95623.27
2022-11-16T12:07:25.988Z,95609.03
2022-11-16T12:17:45.176Z,95598.01
2022-11-16T12:27:51.543Z,95591.09
2022-11-16T12:38:00.792Z,95578.92
2022-11-16T12:48:46.485Z,95581.79
2022-11-16T12:58:59.385Z,95578.13
2022-11-16T13:09:24.042Z,95573.55
2022-11-16T13:19:28.762Z,95573.41
2022-11-16T13:29:48.955Z,95581.00
2022-11-16T13:39:59.969Z,95579.73
2022-11-16T13:50:07.755Z,95571.33
2022-11-16T14:00:12.472Z,95574.80
2022-11-16T14:10:34.720Z,95577.33
2022-11-16T14:20:38.493Z,95582.34
2022-11-16T14:30:54.805Z,95573.55
2022-11-16T14:41:02.518Z,95571.42
2022-11-16T14:51:12.065Z,95567.39
2022-11-16T15:01:19.378Z,95561.89
2022-11-16T15:11:54.996Z,95560.45
2022-11-16T15:22:01.102Z,95550.01
2022-11-16T15:32:06.936Z,95541.55
2022-11-16T15:42:16.055Z,95535.41
2022-11-16T15:52:50.695Z,95539.74
2022-11-16T16:03:07.067Z,95535.15
2022-11-16T16:13:26.580Z,95536.91
2022-11-16T16:23:30.467Z,95537.77
2022-11-16T16:33:34.658Z,95537.25
2022-11-16T16:43:38.955Z,95531.65
2022-11-16T16:53:42.626Z,95534.78
2022-11-16T17:03:47.618Z,95534.98
2022-11-16T17:13:51.639Z,95522.14
2022-11-16T17:23:56.114Z,95517.76
2022-11-16T17:34:01.917Z,95526.95
2022-11-16T17:44:07.297Z,95525.62
2022-11-16T17:54:12.497Z,95529.66
2022-11-16T18:04:17.094Z,95533.18
2022-11-16T18:14:21.664Z,95527.02
2022-11-16T18:24:27.168Z,95523.27
2022-11-16T18:34:31.832Z,95524.77
2022-11-16T18:44:37.061Z,95517.55
2022-11-16T18:54:42.041Z,95512.40
2022-11-16T19:04:46.945Z,95513.02
2022-11-16T19:14:51.738Z,95505.55
2022-11-16T19:25:00.525Z,95516.08
2022-11-16T19:35:11.118Z,95525.88
2022-11-16T19:45:16.844Z,95528.39
2022-11-16T19:55:21.119Z,95522.08
2022-11-16T20:05:28.984Z,95528.95
2022-11-16T20:15:33.905Z,95523.11
2022-11-16T20:25:44.389Z,95520.63
2022-11-16T20:35:49.510Z,95526.48
2022-11-16T20:45:55.513Z,95530.71
2022-11-16T20:56:02.672Z,95528.23
2022-11-16T21:06:10.652Z,95530.31
2022-11-16T21:16:16.263Z,95520.40
2022-11-16T21:26:25.619Z,95519.80
2022-11-16T21:36:31.465Z,95520.03
2022-11-16T21:46:36.356Z,95522.77
2022-11-16T21:56:40.219Z,95518.31
2022-11-16T22:07:03.072Z,95511.04
2022-11-16T22:17:09.009Z,95514.27
2022-11-16T22:27:13.751Z,95516.88
2022-11-16T22:37:18.572Z,95519.77
2022-11-16T22:47:22.386Z,95528.18
2022-11-16T22:57:26.360Z,95526.30
2022-11-16T23:07:30.667Z,95519.61
2022-11-16T23:17:34.606Z,95504.42
2022-11-16T23:28:05.915Z,95513.69
2022-11-16T23:38:10.289Z,95516.85
2022-11-16T23:48:16.198Z,95504.40
2022-11-16T23:58:19.964Z,95503.70
